Time;durP1;ratioP1;P1;durP2;ratioP2;P2;SDS_P1;SDS_P2;PMS_P1;PMS_P2;Temp;Humidity;BMP_temperature;BMP_pressure;BME280_temperature;BME280_humidity;BME280_pressure;Samples;Min_cycle;Max_cycle;Signal;HPM_P1;HPM_P2
2023/09/03 00:00:20;;;;;;;;;;;;;;;21.48;57.61;102569.78;5064327;28;19912;-58
2023/09/03 00:02:45;;;;;;;;;;;;;;;21.47;57.30;102563.53;5064262;28;19927;-56
2023/09/03 00:05:10;;;;;;;;;;;;;;;21.46;57.71;102565.38;5064473;28;19913;-56
2023/09/03 00:07:35;;;;;;;;;;;;;;;21.46;57.32;102567.25;5063665;28;19970;-54
2023/09/03 00:10:00;;;;;;;;;;;;;;;21.01;57.68;102491.25;5063909;28;19928;-56
2023/09/03 00:12:25;;;;;;;;;;;;;;;21.45;57.36;102568.22;5064380;28;19940;-58
2023/09/03 00:14:51;;;;;;;;;;;;;;;21.45;57.36;102576.34;5064564;28;20362;-58
2023/09/03 00:17:16;;;;;;;;;;;;;;;21.43;57.57;102576.50;5064260;28;20251;-58
2023/09/03 00:19:41;;;;;;;;;;;;;;;21.42;57.48;102582.06;5063464;28;19920;-57
2023/09/03 00:22:07;;;;;;;;;;;;;;;21.42;57.48;102584.75;5064431;28;19917;-57
2023/09/03 00:24:35;;;;;;;;;;;;;;;21.42;57.57;102582.91;5063678;28;19920;-58
2023/09/03 00:27:00;;;;;;;;;;;;;;;21.42;57.60;102590.19;5064159;28;19917;-57
2023/09/03 00:29:26;;;;;;;;;;;;;;;21.42;57.70;102603.72;5063450;28;19927;-56
2023/09/03 00:31:51;;;;;;;;;;;;;;;21.40;57.35;102609.25;5064291;28;19943;-57
2023/09/03 00:34:17;;;;;;;;;;;;;;;21.40;57.24;102606.53;5063509;28;19956;-56
2023/09/03 00:36:42;;;;;;;;;;;;;;;21.39;57.53;102602.13;5063992;28;19962;-57
2023/09/03 00:39:07;;;;;;;;;;;;;;;21.39;57.09;102603.97;5063485;28;19938;-57
2023/09/03 00:41:32;;;;;;;;;;;;;;;21.39;57.23;102593.16;5071068;28;19943;-57
2023/09/03 00:43:57;;;;;;;;;;;;;;;21.38;57.23;102588.75;5063482;28;19916;-58
2023/09/03 00:46:23;;;;;;;;;;;;;;;21.38;57.32;102586.06;5063963;28;19923;-57
2023/09/03 00:48:48;;;;;;;;;;;;;;;21.37;57.29;102574.38;5061894;28;19913;-57
2023/09/03 00:51:13;;;;;;;;;;;;;;;21.37;57.20;102570.81;5063852;28;19916;-57
2023/09/03 00:53:40;;;;;;;;;;;;;;;21.36;57.25;102569.94;5063482;28;19916;-57
2023/09/03 00:56:06;;;;;;;;;;;;;;;21.35;57.15;102579.06;5063601;28;20378;-57
2023/09/03 00:58:31;;;;;;;;;;;;;;;21.35;57.49;102575.50;5063208;28;20154;-57
2023/09/03 01:00:56;;;;;;;;;;;;;;;21.34;57.26;102573.81;5078591;28;19921;-57
2023/09/03 01:03:22;;;;;;;;;;;;;;;21.33;57.23;102575.66;5065425;28;19991;-57
2023/09/03 01:05:47;;;;;;;;;;;;;;;21.33;57.28;102567.53;5067545;28;19917;-58
2023/09/03 01:08:12;;;;;;;;;;;;;;;21.31;57.08;102564.09;5067362;28;19958;-57
2023/09/03 01:10:56;;;;;;;;;;;;;;;21.31;57.02;102560.53;5065737;28;19923;-56
2023/09/03 01:13:32;;;;;;;;;;;;;;;21.30;57.21;102562.38;5067290;28;19967;-56
2023/09/03 01:15:58;;;;;;;;;;;;;;;21.30;57.04;102567.78;5083180;28;19952;-58
2023/09/03 01:18:23;;;;;;;;;;;;;;;21.29;57.13;102574.22;5066894;28;19913;-57
2023/09/03 01:21:21;;;;;;;;;;;;;;;21.29;57.25;102585.03;5067237;28;20031;-56
2023/09/03 01:23:49;;;;;;;;;;;;;;;21.28;57.20;102582.44;5064407;28;19917;-51
2023/09/03 01:26:15;;;;;;;;;;;;;;;21.27;57.20;102565.38;5064780;28;20007;-59
2023/09/03 01:28:41;;;;;;;;;;;;;;;21.26;57.18;102577.19;5064244;28;19913;-58
2023/09/03 01:31:11;;;;;;;;;;;;;;;21.26;56.93;102573.63;5065098;28;19912;-58
2023/09/03 01:33:40;;;;;;;;;;;;;;;21.26;57.34;102581.75;5064698;28;19912;-57
2023/09/03 01:36:06;;;;;;;;;;;;;;;21.24;57.16;102581.91;5064210;28;19916;-57
2023/09/03 01:38:31;;;;;;;;;;;;;;;21.24;57.07;102587.31;5064482;28;19912;-57
2023/09/03 01:40:57;;;;;;;;;;;;;;;21.24;57.29;102587.31;5047160;28;19917;-59
2023/09/03 01:43:23;;;;;;;;;;;;;;;21.23;57.12;102594.56;5064115;28;20062;-57
2023/09/03 01:45:54;;;;;;;;;;;;;;;21.22;56.91;102595.56;5064907;28;19912;-56
2023/09/03 01:48:38;;;;;;;;;;;;;;;21.22;57.14;102600.97;5063758;28;19924;-60
2023/09/03 01:51:17;;;;;;;;;;;;;;;21.21;57.01;102595.72;5064619;28;19913;-57
2023/09/03 01:53:50;;;;;;;;;;;;;;;21.20;57.30;102594.88;5047612;28;19917;-53
2023/09/03 01:56:15;;;;;;;;;;;;;;;21.20;57.23;102600.28;5064067;28;19912;-57
2023/09/03 01:58:40;;;;;;;;;;;;;;;21.19;57.01;102600.41;5065585;28;19951;-59
2023/09/03 02:01:06;;;;;;;;;;;;;;;21.19;56.91;102603.09;5065855;28;19913;-57
2023/09/03 02:03:31;;;;;;;;;;;;;;;21.18;56.84;102598.69;5064662;28;19943;-57
2023/09/03 02:05:56;;;;;;;;;;;;;;;21.18;56.87;102599.53;5065416;28;19935;-57
2023/09/03 02:08:22;;;;;;;;;;;;;;;21.17;57.16;102587.03;5065492;28;19928;-58
2023/09/03 02:10:47;;;;;;;;;;;;;;;21.17;57.20;102580.75;5066223;28;19913;-58
2023/09/03 02:13:12;;;;;;;;;;;;;;;21.16;57.09;102576.38;5066374;28;19913;-56
2023/09/03 02:15:37;;;;;;;;;;;;;;;21.16;56.90;102568.25;5066300;28;19944;-57
2023/09/03 02:18:02;;;;;;;;;;;;;;;21.15;56.86;102569.22;5066327;28;20390;-58
2023/09/03 02:20:28;;;;;;;;;;;;;;;21.13;57.05;102573.94;5066316;28;19947;-58
2023/09/03 02:22:53;;;;;;;;;;;;;;;21.13;57.03;102561.25;5066004;28;19923;-57
2023/09/03 02:25:18;;;;;;;;;;;;;;;21.12;56.67;102562.25;5065607;28;19920;-57
2023/09/03 02:27:43;;;;;;;;;;;;;;;21.12;56.91;102542.47;5066172;28;19917;-56
2023/09/03 02:30:09;;;;;;;;;;;;;;;21.12;56.95;102531.66;5066105;28;19976;-58
2023/09/03 02:32:34;;;;;;;;;;;;;;;21.11;56.98;102521.81;5066042;28;19917;-52
2023/09/03 02:34:59;;;;;;;;;;;;;;;21.10;57.04;102523.69;5065591;28;19919;-57
2023/09/03 02:37:24;;;;;;;;;;;;;;;21.10;56.78;102525.53;5066247;28;19917;-57
2023/09/03 02:39:49;;;;;;;;;;;;;;;21.10;56.85;102530.94;5065119;28;19963;-57
2023/09/03 02:42:15;;;;;;;;;;;;;;;21.09;56.80;102550.88;5065832;28;19908;-57
2023/09/03 02:44:40;;;;;;;;;;;;;;;21.07;56.63;102555.56;5065682;28;19924;-58
2023/09/03 02:47:05;;;;;;;;;;;;;;;21.06;56.69;102546.59;5065754;28;19920;-55
2023/09/03 02:49:30;;;;;;;;;;;;;;;21.07;56.88;102553.72;5065579;28;19920;-58
2023/09/03 02:51:56;;;;;;;;;;;;;;;21.06;56.79;102553.84;5065114;28;19935;-58
2023/09/03 02:54:21;;;;;;;;;;;;;;;21.05;56.82;102553.00;5065916;28;19916;-58
2023/09/03 02:56:46;;;;;;;;;;;;;;;21.04;56.92;102540.50;5063896;28;19913;-57
2023/09/03 02:59:12;;;;;;;;;;;;;;;21.04;56.76;102551.31;5065086;28;19916;-59
2023/09/03 03:01:37;;;;;;;;;;;;;;;21.03;56.60;102554.16;5065276;28;19913;-58
2023/09/03 03:04:02;;;;;;;;;;;;;;;21.03;56.63;102562.28;5065092;28;19917;-57
2023/09/03 03:06:27;;;;;;;;;;;;;;;21.03;56.83;102564.97;5065096;28;19935;-57
2023/09/03 03:08:53;;;;;;;;;;;;;;;21.02;56.72;102577.63;5065230;28;20007;-57
2023/09/03 03:11:18;;;;;;;;;;;;;;;21.02;56.66;102582.19;5064936;28;19919;-56
2023/09/03 03:13:44;;;;;;;;;;;;;;;21.02;56.77;102583.03;5065266;28;19920;-57
2023/09/03 03:16:10;;;;;;;;;;;;;;;21.01;56.71;102580.47;5065587;28;19939;-57
2023/09/03 03:18:36;;;;;;;;;;;;;;;21.01;56.65;102578.63;5064638;28;20460;-53
2023/09/03 03:21:19;;;;;;;;;;;;;;;21.00;56.77;102570.66;5065334;28;20011;-58
2023/09/03 03:23:48;;;;;;;;;;;;;;;20.97;56.62;102569.94;5063742;28;19927;-57
2023/09/03 03:26:13;;;;;;;;;;;;;;;20.96;56.62;102568.22;5064048;28;19923;-59
2023/09/03 03:28:39;;;;;;;;;;;;;;;20.97;56.61;102577.19;5064687;28;19960;-57
2023/09/03 03:31:10;;;;;;;;;;;;;;;20.96;56.63;102579.06;5065211;28;19920;-58
2023/09/03 03:33:36;;;;;;;;;;;;;;;20.96;56.71;102581.75;5063637;28;19927;-57
2023/09/03 03:36:01;;;;;;;;;;;;;;;20.95;56.89;102584.63;5064556;28;19921;-58
2023/09/03 03:38:26;;;;;;;;;;;;;;;20.94;56.71;102597.28;5064653;28;19935;-58
2023/09/03 03:40:51;;;;;;;;;;;;;;;20.95;56.54;102611.66;5064145;28;19924;-58
2023/09/03 03:43:17;;;;;;;;;;;;;;;20.94;56.64;102615.31;5064437;28;19921;-57
2023/09/03 03:45:42;;;;;;;;;;;;;;;20.93;56.57;102614.47;5064994;28;19913;-57
2023/09/03 03:48:07;;;;;;;;;;;;;;;20.93;56.72;102610.91;5064351;28;20271;-57
2023/09/03 03:50:32;;;;;;;;;;;;;;;20.92;56.72;102620.03;5064680;28;19944;-56
2023/09/03 03:52:58;;;;;;;;;;;;;;;20.92;56.75;102620.88;5064094;28;19973;-57
2023/09/03 03:55:23;;;;;;;;;;;;;;;20.91;56.86;102612.94;5064230;28;19920;-58
2023/09/03 03:57:48;;;;;;;;;;;;;;;20.90;56.67;102603.97;5064081;28;19917;-57
2023/09/03 04:00:13;;;;;;;;;;;;;;;20.90;56.81;102605.81;5064794;28;19924;-57
2023/09/03 04:02:39;;;;;;;;;;;;;;;20.89;56.68;102607.63;5064302;28;19972;-57
2023/09/03 04:05:04;;;;;;;;;;;;;;;20.89;56.48;102609.50;5062986;28;19917;-57
2023/09/03 04:07:29;;;;;;;;;;;;;;;20.88;56.40;102616.75;5064247;28;20003;-56
2023/09/03 04:09:54;;;;;;;;;;;;;;;20.88;56.60;102605.94;5063713;28;20305;-57
2023/09/03 04:12:20;;;;;;;;;;;;;;;20.87;56.69;102592.56;5064128;28;20285;-56
2023/09/03 04:14:45;;;;;;;;;;;;;;;20.86;56.56;102591.72;5064019;28;20355;-56
2023/09/03 04:17:11;;;;;;;;;;;;;;;20.85;56.34;102583.72;5064200;28;20350;-57
2023/09/03 04:19:36;;;;;;;;;;;;;;;20.85;56.49;102581.88;5064040;28;20011;-58
2023/09/03 04:22:01;;;;;;;;;;;;;;;20.85;56.77;102576.47;5064081;28;19975;-57
2023/09/03 04:24:26;;;;;;;;;;;;;;;20.85;56.31;102586.44;5064013;28;19967;-57
2023/09/03 04:26:51;;;;;;;;;;;;;;;20.84;56.54;102591.00;5063465;28;19952;-56
2023/09/03 04:29:16;;;;;;;;;;;;;;;20.83;56.64;102605.50;5063633;28;19916;-59
2023/09/03 04:31:42;;;;;;;;;;;;;;;20.83;56.42;102612.78;5063922;28;19916;-57
2023/09/03 04:34:08;;;;;;;;;;;;;;;20.82;56.63;102628.13;5063295;28;20368;-56
2023/09/03 04:36:34;;;;;;;;;;;;;;;20.82;56.50;102633.53;5063628;28;19912;-57
2023/09/03 04:38:59;;;;;;;;;;;;;;;20.81;56.58;102634.53;5062772;28;19962;-57
2023/09/03 04:41:24;;;;;;;;;;;;;;;20.81;56.51;102637.22;5063541;28;19924;-57
2023/09/03 04:43:49;;;;;;;;;;;;;;;20.80;56.46;102643.63;5063259;28;19927;-57
2023/09/03 04:46:14;;;;;;;;;;;;;;;20.80;56.27;102640.06;5063960;28;19924;-56
2023/09/03 04:48:40;;;;;;;;;;;;;;;20.79;56.44;102638.38;5063509;28;19916;-57
2023/09/03 04:51:05;;;;;;;;;;;;;;;20.78;56.32;102637.53;5063613;28;19921;-57
2023/09/03 04:53:31;;;;;;;;;;;;;;;20.78;56.31;102644.78;5063865;28;19924;-57
2023/09/03 04:55:56;;;;;;;;;;;;;;;20.78;56.45;102655.59;5063080;28;19913;-57
2023/09/03 04:58:22;;;;;;;;;;;;;;;20.77;56.45;102654.72;5062026;28;19912;-57
2023/09/03 05:00:47;;;;;;;;;;;;;;;20.77;56.42;102656.56;5063500;28;19936;-56
2023/09/03 05:03:12;;;;;;;;;;;;;;;20.76;56.23;102663.81;5063141;28;19921;-56
2023/09/03 05:05:38;;;;;;;;;;;;;;;20.75;56.22;102655.88;5062632;28;19913;-57
2023/09/03 05:08:03;;;;;;;;;;;;;;;20.75;56.34;102654.00;5059557;28;19917;-57
2023/09/03 05:10:28;;;;;;;;;;;;;;;20.75;56.20;102655.88;5062635;28;19920;-60
2023/09/03 05:12:53;;;;;;;;;;;;;;;20.74;56.35;102643.34;5063181;28;19979;-56
2023/09/03 05:15:19;;;;;;;;;;;;;;;20.74;56.58;102641.50;5063241;28;20012;-57
2023/09/03 05:17:44;;;;;;;;;;;;;;;20.73;56.24;102637.09;5063070;28;19917;-57
2023/09/03 05:20:09;;;;;;;;;;;;;;;20.71;56.45;102637.22;5061986;28;19925;-57
2023/09/03 05:22:34;;;;;;;;;;;;;;;20.72;56.42;102655.13;5063073;28;19917;-57
2023/09/03 05:25:00;;;;;;;;;;;;;;;20.71;56.40;102666.94;5062982;28;20450;-57
2023/09/03 05:27:27;;;;;;;;;;;;;;;20.70;56.24;102670.66;5063224;28;19970;-55
2023/09/03 05:29:53;;;;;;;;;;;;;;;20.71;56.16;102682.31;5063188;28;19916;-57
2023/09/03 05:32:19;;;;;;;;;;;;;;;20.70;56.30;102688.72;5062857;28;19956;-58
2023/09/03 05:34:44;;;;;;;;;;;;;;;20.71;56.24;102701.22;5062747;28;20365;-57
2023/09/03 05:37:09;;;;;;;;;;;;;;;20.70;56.31;102708.50;5063179;28;20158;-57
2023/09/03 05:39:34;;;;;;;;;;;;;;;20.69;56.50;102714.91;5062745;28;19917;-57
2023/09/03 05:42:00;;;;;;;;;;;;;;;20.70;56.22;102723.84;5062352;28;19917;-58
2023/09/03 05:44:25;;;;;;;;;;;;;;;20.68;56.33;102732.09;5062732;28;19921;-57
2023/09/03 05:46:50;;;;;;;;;;;;;;;20.69;56.21;102732.97;5062591;28;19947;-57
2023/09/03 05:49:15;;;;;;;;;;;;;;;20.68;56.32;102740.19;5064436;28;19917;-56
2023/09/03 05:51:41;;;;;;;;;;;;;;;20.68;56.42;102740.19;5066308;28;19919;-57
2023/09/03 05:54:06;;;;;;;;;;;;;;;20.67;56.14;102734.94;5066499;28;19920;-57
2023/09/03 05:56:32;;;;;;;;;;;;;;;20.69;56.12;102751.88;5066820;28;19917;-57
2023/09/03 05:59:03;;;;;;;;;;;;;;;20.68;56.33;102739.34;5066389;28;20008;-57
2023/09/03 06:01:29;;;;;;;;;;;;;;;20.68;56.07;102750.16;5066220;28;19942;-56
2023/09/03 06:03:54;;;;;;;;;;;;;;;20.68;56.48;102755.56;5065911;28;19956;-57
2023/09/03 06:06:19;;;;;;;;;;;;;;;20.66;56.40;102753.00;5066419;28;19994;-57
2023/09/03 06:08:44;;;;;;;;;;;;;;;20.66;56.34;102753.00;5066389;28;19974;-57
2023/09/03 06:11:10;;;;;;;;;;;;;;;20.66;56.25;102753.00;5065087;28;19919;-55
2023/09/03 06:13:35;;;;;;;;;;;;;;;20.67;56.12;102757.41;5065793;28;19920;-59
2023/09/03 06:16:00;;;;;;;;;;;;;;;20.67;56.19;102762.81;5066575;28;20087;-57
2023/09/03 06:18:25;;;;;;;;;;;;;;;20.66;56.34;102765.66;5065854;28;19924;-56
2023/09/03 06:20:51;;;;;;;;;;;;;;;20.66;56.25;102766.50;5066168;28;19920;-57
2023/09/03 06:23:18;;;;;;;;;;;;;;;20.66;56.01;102766.50;5065598;28;19983;-56
2023/09/03 06:25:44;;;;;;;;;;;;;;;20.66;56.23;102771.91;5065354;28;19923;-56
2023/09/03 06:28:09;;;;;;;;;;;;;;;20.67;56.30;102761.97;5065536;28;20381;-57
2023/09/03 06:30:34;;;;;;;;;;;;;;;20.66;56.38;102763.81;5072667;28;19951;-57
2023/09/03 06:32:59;;;;;;;;;;;;;;;20.66;56.12;102749.44;5065824;28;19923;-57
2023/09/03 06:35:25;;;;;;;;;;;;;;;20.66;56.16;102750.28;5065854;28;19913;-57
2023/09/03 06:37:50;;;;;;;;;;;;;;;20.66;56.18;102766.50;5065777;28;19948;-57
2023/09/03 06:40:15;;;;;;;;;;;;;;;20.63;56.27;102747.84;5065776;28;19913;-54
2023/09/03 06:42:43;;;;;;;;;;;;;;;20.66;56.18;102749.44;5064890;28;19980;-57
2023/09/03 06:45:09;;;;;;;;;;;;;;;20.66;56.01;102762.97;5066069;28;19978;-57
2023/09/03 06:47:34;;;;;;;;;;;;;;;20.66;56.17;102760.25;5065352;28;20361;-57
2023/09/03 06:49:59;;;;;;;;;;;;;;;20.66;56.09;102760.25;5065460;28;19948;-56
2023/09/03 06:52:24;;;;;;;;;;;;;;;20.66;55.99;102769.22;5065474;28;19912;-57
2023/09/03 06:54:50;;;;;;;;;;;;;;;20.68;56.31;102778.03;5065016;28;20412;-57
2023/09/03 06:57:15;;;;;;;;;;;;;;;20.66;56.05;102780.03;5065841;28;19958;-57
2023/09/03 06:59:41;;;;;;;;;;;;;;;20.64;56.42;102779.28;5061495;28;19913;-57
2023/09/03 07:02:06;;;;;;;;;;;;;;;20.69;56.47;102787.03;5064882;28;20003;-57
2023/09/03 07:04:31;;;;;;;;;;;;;;;20.69;56.20;102798.69;5064872;28;19927;-56
2023/09/03 07:06:56;;;;;;;;;;;;;;;20.70;56.09;102799.53;5065671;28;19984;-55
2023/09/03 07:09:22;;;;;;;;;;;;;;;20.68;56.28;102799.66;5064771;28;19916;-57
2023/09/03 07:11:47;;;;;;;;;;;;;;;20.69;56.24;102798.69;5065369;28;19913;-57
2023/09/03 07:14:12;;;;;;;;;;;;;;;20.70;56.17;102808.50;5064815;28;20003;-59
2023/09/03 07:16:37;;;;;;;;;;;;;;;20.35;56.06;102744.00;5065376;28;20346;-56
2023/09/03 07:19:02;;;;;;;;;;;;;;;20.69;56.46;102798.69;5064783;28;19923;-57
2023/09/03 07:21:28;;;;;;;;;;;;;;;20.70;56.34;102800.38;5065226;28;20006;-55
2023/09/03 07:23:53;;;;;;;;;;;;;;;20.70;56.24;102803.09;5064637;28;19963;-59
2023/09/03 07:26:19;;;;;;;;;;;;;;;20.71;56.46;102802.09;5064617;28;19913;-58
2023/09/03 07:28:44;;;;;;;;;;;;;;;20.72;56.08;102811.06;5064449;28;19923;-58
2023/09/03 07:31:09;;;;;;;;;;;;;;;20.72;56.11;102811.06;5063650;28;19917;-57
2023/09/03 07:33:34;;;;;;;;;;;;;;;20.74;56.02;102805.53;5064653;28;19923;-58
2023/09/03 07:35:59;;;;;;;;;;;;;;;20.72;56.47;102802.94;5064705;28;19956;-56
2023/09/03 07:38:27;;;;;;;;;;;;;;;20.72;56.42;102802.94;5064445;28;19913;-57
2023/09/03 07:40:52;;;;;;;;;;;;;;;20.73;56.05;102796.56;5062043;28;20113;-58
2023/09/03 07:43:17;;;;;;;;;;;;;;;20.74;56.16;102786.63;5063322;28;19988;-57
2023/09/03 07:45:42;;;;;;;;;;;;;;;20.74;56.34;102790.16;5065118;28;19916;-57
2023/09/03 07:48:07;;;;;;;;;;;;;;;20.74;56.05;102782.06;5064845;28;20285;-57
2023/09/03 07:50:33;;;;;;;;;;;;;;;20.75;56.18;102785.63;5064355;28;20341;-56
2023/09/03 07:52:58;;;;;;;;;;;;;;;20.75;56.39;102786.47;5064358;28;20456;-58
2023/09/03 07:55:23;;;;;;;;;;;;;;;20.75;56.11;102794.56;5064119;28;19916;-57
2023/09/03 07:57:49;;;;;;;;;;;;;;;20.76;56.03;102796.28;5064701;28;19913;-56
2023/09/03 08:00:14;;;;;;;;;;;;;;;20.76;56.14;102801.69;5063887;28;19917;-54
2023/09/03 08:02:39;;;;;;;;;;;;;;;20.76;56.05;102796.28;5064192;28;19913;-57
2023/09/03 08:05:05;;;;;;;;;;;;;;;20.77;56.14;102803.41;5064298;28;20377;-57
2023/09/03 08:07:30;;;;;;;;;;;;;;;20.77;56.04;102808.81;5064414;28;19939;-58
2023/09/03 08:09:56;;;;;;;;;;;;;;;20.78;56.25;102806.97;5063614;28;19913;-57
2023/09/03 08:12:21;;;;;;;;;;;;;;;20.78;56.37;102796.16;5063845;28;19959;-57
2023/09/03 08:14:48;;;;;;;;;;;;;;;20.78;56.04;102798.88;5064092;28;19960;-57
2023/09/03 08:17:13;;;;;;;;;;;;;;;20.77;56.13;102810.66;5064225;28;19920;-57
2023/09/03 08:19:39;;;;;;;;;;;;;;;20.79;56.36;102806.84;5063758;28;19913;-57
2023/09/03 08:22:04;;;;;;;;;;;;;;;20.79;56.09;102805.97;5063669;28;19913;-57
2023/09/03 08:24:29;;;;;;;;;;;;;;;20.79;56.08;102812.25;5063555;28;19928;-57
2023/09/03 08:26:55;;;;;;;;;;;;;;;20.81;56.15;102809.38;5063818;28;20000;-56
2023/09/03 08:29:20;;;;;;;;;;;;;;;20.82;56.07;102806.56;5063972;28;19912;-57
2023/09/03 08:31:45;;;;;;;;;;;;;;;20.82;56.13;102806.56;5063712;28;19920;-57
2023/09/03 08:34:10;;;;;;;;;;;;;;;20.84;56.06;102809.13;5063147;28;19913;-57
2023/09/03 08:36:36;;;;;;;;;;;;;;;20.85;56.39;102813.53;5064116;28;19921;-57
2023/09/03 08:39:02;;;;;;;;;;;;;;;20.85;55.94;102818.94;5063322;28;19913;-57
2023/09/03 08:41:27;;;;;;;;;;;;;;;20.87;56.36;102827.78;5062129;28;19942;-57
2023/09/03 08:43:54;;;;;;;;;;;;;;;20.87;55.96;102831.34;5063900;28;19921;-57
2023/09/03 08:46:19;;;;;;;;;;;;;;;20.87;56.03;102825.94;5064216;28;19913;-57
2023/09/03 08:48:44;;;;;;;;;;;;;;;20.89;55.96;102828.50;5062442;28;19917;-55
2023/09/03 08:51:10;;;;;;;;;;;;;;;20.88;56.05;102833.06;5063492;28;19912;-57
2023/09/03 08:53:35;;;;;;;;;;;;;;;20.88;55.91;102826.78;5062076;28;19913;-54
2023/09/03 08:56:00;;;;;;;;;;;;;;;20.89;55.95;102825.78;5063261;28;19968;-56
2023/09/03 08:58:26;;;;;;;;;;;;;;;20.88;56.13;102818.69;5063867;28;19920;-57
2023/09/03 09:00:52;;;;;;;;;;;;;;;20.87;56.37;102817.84;5063413;28;19917;-56
2023/09/03 09:03:17;;;;;;;;;;;;;;;20.88;56.12;102818.69;5061016;28;19917;-56
2023/09/03 09:05:43;;;;;;;;;;;;;;;20.88;56.35;102819.53;5063409;28;19971;-57
2023/09/03 09:08:08;;;;;;;;;;;;;;;20.88;56.11;102816.84;5063647;28;19935;-57
2023/09/03 09:10:37;;;;;;;;;;;;;;;20.88;56.25;102810.56;5062582;28;20318;-55
2023/09/03 09:13:02;;;;;;;;;;;;;;;20.88;56.15;102815.97;5063523;28;19916;-57
2023/09/03 09:15:27;;;;;;;;;;;;;;;20.88;56.24;102818.69;5063445;28;19923;-57
2023/09/03 09:17:52;;;;;;;;;;;;;;;20.88;56.30;102819.53;5063589;28;19952;-57
2023/09/03 09:20:18;;;;;;;;;;;;;;;20.88;56.23;102830.34;5062910;28;19964;-60
2023/09/03 09:22:43;;;;;;;;;;;;;;;20.89;56.14;102825.78;5063109;28;20440;-53
2023/09/03 09:25:10;;;;;;;;;;;;;;;20.53;56.54;102765.88;5066187;28;19995;-57
2023/09/03 09:27:35;;;;;;;;;;;;;;;20.89;56.25;102832.06;5072526;28;20328;-55
2023/09/03 09:30:10;;;;;;;;;;;;;;;20.90;56.55;102839.19;5067472;28;19972;-57
2023/09/03 09:32:36;;;;;;;;;;;;;;;20.89;56.31;102826.66;5067529;28;19980;-58
2023/09/03 09:35:01;;;;;;;;;;;;;;;20.90;56.36;102831.09;5066872;28;19935;-57
2023/09/03 09:37:26;;;;;;;;;;;;;;;20.91;56.47;102831.94;5066777;28;19920;-58
2023/09/03 09:39:51;;;;;;;;;;;;;;;20.90;56.48;102828.38;5065830;28;19917;-57
2023/09/03 09:42:19;;;;;;;;;;;;;;;20.92;56.67;102828.25;5066687;28;19924;-57
2023/09/03 09:44:51;;;;;;;;;;;;;;;20.92;56.50;102833.66;5065970;28;19924;-57
2023/09/03 09:47:16;;;;;;;;;;;;;;;20.93;56.58;102832.66;5066780;28;19940;-57
2023/09/03 09:49:42;;;;;;;;;;;;;;;20.93;56.44;102844.31;5066948;28;20358;-58
2023/09/03 09:52:08;;;;;;;;;;;;;;;20.94;56.33;102837.94;5066829;28;19913;-57
2023/09/03 09:54:37;;;;;;;;;;;;;;;20.95;56.41;102846.91;5066511;28;19913;-57
2023/09/03 09:57:08;;;;;;;;;;;;;;;20.96;56.38;102846.75;5066510;28;19976;-57
2023/09/03 09:59:33;;;;;;;;;;;;;;;20.97;56.47;102839.50;5066763;28;19970;-57
2023/09/03 10:01:58;;;;;;;;;;;;;;;20.98;56.30;102846.59;5065236;28;19963;-57
2023/09/03 10:04:27;;;;;;;;;;;;;;;20.99;56.65;102848.34;5081686;28;20436;-58
2023/09/03 10:06:52;;;;;;;;;;;;;;;20.99;56.52;102842.94;5066128;28;19923;-57
2023/09/03 10:09:18;;;;;;;;;;;;;;;21.01;56.40;102851.75;5082097;28;20003;-58
2023/09/03 10:11:43;;;;;;;;;;;;;;;21.02;56.54;102850.75;5064461;28;19913;-57
2023/09/03 10:14:08;;;;;;;;;;;;;;;21.02;56.57;102847.19;5066224;28;20062;-60
2023/09/03 10:16:34;;;;;;;;;;;;;;;21.04;56.40;102839.81;5066701;28;19997;-57
2023/09/03 10:18:59;;;;;;;;;;;;;;;21.03;56.43;102838.97;5065166;28;19923;-58
2023/09/03 10:21:24;;;;;;;;;;;;;;;21.04;56.50;102840.69;5064951;28;19952;-56
2023/09/03 10:23:50;;;;;;;;;;;;;;;21.04;56.85;102843.38;5064924;28;19943;-56
2023/09/03 10:26:34;;;;;;;;;;;;;;;21.06;56.75;102849.50;5065976;28;19913;-52
2023/09/03 10:29:01;;;;;;;;;;;;;;;21.06;56.47;102849.50;5064763;28;19917;-56
2023/09/03 10:31:26;;;;;;;;;;;;;;;21.08;56.88;102846.69;5066130;28;19924;-58
2023/09/03 10:33:51;;;;;;;;;;;;;;;21.09;56.56;102845.69;5081326;28;19913;-58
2023/09/03 10:36:18;;;;;;;;;;;;;;;21.10;56.86;102847.38;5064043;28;19917;-58
2023/09/03 10:38:43;;;;;;;;;;;;;;;21.10;56.57;102848.22;5064559;28;20008;-57
2023/09/03 10:41:16;;;;;;;;;;;;;;;21.11;56.78;102843.69;5065487;28;19941;-58
2023/09/03 10:43:41;;;;;;;;;;;;;;;21.12;56.83;102842.72;5064529;28;20417;-54
2023/09/03 10:46:07;;;;;;;;;;;;;;;21.13;56.76;102845.25;5065696;28;19912;-58
2023/09/03 10:48:34;;;;;;;;;;;;;;;21.14;56.76;102841.56;5065898;28;19924;-58
2023/09/03 10:50:59;;;;;;;;;;;;;;;21.14;56.87;102852.38;5065116;28;19916;-57
2023/09/03 10:53:34;;;;;;;;;;;;;;;21.16;56.82;102844.16;5062003;28;19941;-58
2023/09/03 10:56:15;;;;;;;;;;;;;;;21.17;56.94;102846.69;5065452;28;19972;-58
2023/09/03 10:59:00;;;;;;;;;;;;;;;21.19;56.99;102843.84;5065805;28;19913;-58
2023/09/03 11:01:32;;;;;;;;;;;;;;;21.20;56.96;102843.72;5064107;28;19912;-57
2023/09/03 11:03:58;;;;;;;;;;;;;;;21.21;57.02;102845.44;5064277;28;19920;-57
2023/09/03 11:06:24;;;;;;;;;;;;;;;21.23;56.90;102842.59;5065358;28;19993;-58
2023/09/03 11:09:10;;;;;;;;;;;;;;;21.24;57.00;102847.03;5065437;28;20365;-58
2023/09/03 11:11:35;;;;;;;;;;;;;;;21.25;56.83;102848.72;5061141;28;20437;-60
2023/09/03 11:14:01;;;;;;;;;;;;;;;21.27;56.79;102841.31;5063401;28;19959;-58
2023/09/03 11:16:36;;;;;;;;;;;;;;;21.28;57.10;102845.75;5065978;28;19917;-58
2023/09/03 11:19:07;;;;;;;;;;;;;;;21.30;57.07;102849.16;5063693;28;20393;-58
2023/09/03 11:21:32;;;;;;;;;;;;;;;21.31;57.11;102826.53;5064997;28;19935;-58
2023/09/03 11:24:00;;;;;;;;;;;;;;;21.32;57.07;102832.81;5064678;28;19917;-58
2023/09/03 11:26:26;;;;;;;;;;;;;;;21.33;57.17;102830.00;5064635;28;19912;-58
2023/09/03 11:28:51;;;;;;;;;;;;;;;21.36;56.97;102829.69;5080120;28;20114;-55
2023/09/03 11:31:16;;;;;;;;;;;;;;;21.37;57.25;102826.03;5063921;28;19960;-60
2023/09/03 11:33:42;;;;;;;;;;;;;;;21.40;56.88;102827.56;5065012;28;20294;-58
2023/09/03 11:36:07;;;;;;;;;;;;;;;21.40;56.98;102823.00;5064865;28;20420;-58
2023/09/03 11:38:33;;;;;;;;;;;;;;;21.41;57.29;102827.47;5061755;28;19924;-57
2023/09/03 11:40:58;;;;;;;;;;;;;;;21.44;56.89;102826.31;5064526;28;20343;-58
2023/09/03 11:43:24;;;;;;;;;;;;;;;21.45;57.10;102826.19;5064423;28;19917;-58
2023/09/03 11:45:49;;;;;;;;;;;;;;;21.47;57.00;102831.44;5065195;28;20358;-58
2023/09/03 11:48:15;;;;;;;;;;;;;;;21.48;57.35;102825.03;5063883;28;20040;-52
2023/09/03 11:50:40;;;;;;;;;;;;;;;21.50;56.98;102833.03;5064582;28;19928;-58
2023/09/03 11:53:05;;;;;;;;;;;;;;;21.51;57.31;102838.28;5064097;28;19928;-54
2023/09/03 11:55:36;;;;;;;;;;;;;;;21.53;57.37;102846.25;5064241;28;19978;-58
2023/09/03 11:58:02;;;;;;;;;;;;;;;21.55;57.01;102844.28;5064217;28;20620;-58
2023/09/03 12:00:27;;;;;;;;;;;;;;;21.55;57.30;102842.44;5063865;28;19913;-58
2023/09/03 12:02:53;;;;;;;;;;;;;;;21.56;57.05;102846.84;5079319;28;19983;-57
2023/09/03 12:05:18;;;;;;;;;;;;;;;21.57;57.51;102840.44;5064146;28;19912;-58
2023/09/03 12:07:44;;;;;;;;;;;;;;;21.59;57.48;102837.59;5063030;28;19920;-58
2023/09/03 12:10:10;;;;;;;;;;;;;;;21.60;57.41;102836.59;5063849;28;19916;-58
2023/09/03 12:12:35;;;;;;;;;;;;;;;21.60;57.46;102832.03;5063802;28;19920;-58
2023/09/03 12:15:00;;;;;;;;;;;;;;;21.62;57.33;102842.72;5064119;28;19924;-59
2023/09/03 12:17:26;;;;;;;;;;;;;;;21.62;57.37;102835.47;5061150;28;19912;-58
2023/09/03 12:19:51;;;;;;;;;;;;;;;21.64;57.29;102836.19;5063508;28;19923;-58
2023/09/03 12:22:18;;;;;;;;;;;;;;;21.66;57.47;102831.50;5064168;28;19927;-58
2023/09/03 12:24:45;;;;;;;;;;;;;;;21.67;57.48;102835.91;5068193;28;19928;-58
2023/09/03 12:27:12;;;;;;;;;;;;;;;21.68;57.28;102829.50;5060867;28;20417;-58
2023/09/03 12:29:38;;;;;;;;;;;;;;;21.69;57.45;102825.78;5061944;28;19913;-58